sensor_id;sensor_type;location;lat;lon;timestamp;pressure;altitude;pressure_sealevel;temperature;humidity
80118;BME280;69424;48.770;-1.564;2023-07-30T00:00:22;101515.86;;;17.17;69.32
80118;BME280;69424;48.770;-1.564;2023-07-30T00:01:15;101507.46;;;17.16;69.46
80118;BME280;69424;48.770;-1.564;2023-07-30T00:01:48;101508.17;;;17.16;69.67
80118;BME280;69424;48.770;-1.564;2023-07-30T00:02:21;101507.64;;;17.15;69.88
80118;BME280;69424;48.770;-1.564;2023-07-30T00:02:55;101507.82;;;17.15;69.96
80118;BME280;69424;48.770;-1.564;2023-07-30T00:03:28;101506.77;;;17.14;70.09
80118;BME280;69424;48.770;-1.564;2023-07-30T00:04:01;101507.84;;;17.13;70.14
80118;BME280;69424;48.770;-1.564;2023-07-30T00:04:34;101512.67;;;17.13;70.17
80118;BME280;69424;48.770;-1.564;2023-07-30T00:05:07;101507.85;;;17.12;70.16
80118;BME280;69424;48.770;-1.564;2023-07-30T00:05:41;101511.78;;;17.11;70.00
80118;BME280;69424;48.770;-1.564;2023-07-30T00:06:14;101511.59;;;17.12;69.73
80118;BME280;69424;48.770;-1.564;2023-07-30T00:06:47;101506.23;;;17.11;69.48
80118;BME280;69424;48.770;-1.564;2023-07-30T00:07:20;101508.92;;;17.11;69.46
80118;BME280;69424;48.770;-1.564;2023-07-30T00:07:53;101508.03;;;17.11;69.57
80118;BME280;69424;48.770;-1.564;2023-07-30T00:08:27;101504.80;;;17.11;69.73
80118;BME280;69424;48.770;-1.564;2023-07-30T00:09:00;101510.70;;;17.11;69.76
80118;BME280;69424;48.770;-1.564;2023-07-30T00:09:33;101509.47;;;17.10;69.46
80118;BME280;69424;48.770;-1.564;2023-07-30T00:10:07;101511.05;;;17.11;69.44
80118;BME280;69424;48.770;-1.564;2023-07-30T00:10:40;101506.60;;;17.11;69.00
80118;BME280;69424;48.770;-1.564;2023-07-30T00:11:12;101506.77;;;17.11;68.68
80118;BME280;69424;48.770;-1.564;2023-07-30T00:11:46;101508.92;;;17.11;68.46
80118;BME280;69424;48.770;-1.564;2023-07-30T00:12:19;101506.23;;;17.10;67.63
80118;BME280;69424;48.770;-1.564;2023-07-30T00:12:52;101505.18;;;17.10;67.68
80118;BME280;69424;48.770;-1.564;2023-07-30T00:13:25;101506.25;;;17.08;67.92
80118;BME280;69424;48.770;-1.564;2023-07-30T00:13:58;101503.05;;;17.07;67.99
80118;BME280;69424;48.770;-1.564;2023-07-30T00:14:31;101499.11;;;17.07;68.08
80118;BME280;69424;48.770;-1.564;2023-07-30T00:15:05;101506.09;;;17.05;68.13
80118;BME280;69424;48.770;-1.564;2023-07-30T00:15:38;101500.55;;;17.04;68.30
80118;BME280;69424;48.770;-1.564;2023-07-30T00:16:11;101496.99;;;17.03;68.54
80118;BME280;69424;48.770;-1.564;2023-07-30T00:16:44;101502.70;;;17.02;68.42
80118;BME280;69424;48.770;-1.564;2023-07-30T00:17:17;101500.77;;;17.01;68.16
80118;BME280;69424;48.770;-1.564;2023-07-30T00:17:50;101499.88;;;16.99;68.20
80118;BME280;69424;48.770;-1.564;2023-07-30T00:18:23;101500.05;;;16.98;68.31
80118;BME280;69424;48.770;-1.564;2023-07-30T00:18:56;101501.84;;;16.97;68.66
80118;BME280;69424;48.770;-1.564;2023-07-30T00:19:29;101502.39;;;16.96;68.99
80118;BME280;69424;48.770;-1.564;2023-07-30T00:20:02;101498.82;;;16.95;69.17
80118;BME280;69424;48.770;-1.564;2023-07-30T00:20:36;101504.00;;;16.94;69.72
80118;BME280;69424;48.770;-1.564;2023-07-30T00:21:09;101503.12;;;16.94;70.14
80118;BME280;69424;48.770;-1.564;2023-07-30T00:21:42;101497.20;;;16.95;70.50
80118;BME280;69424;48.770;-1.564;2023-07-30T00:22:18;101502.02;;;16.95;70.36
80118;BME280;69424;48.770;-1.564;2023-07-30T00:22:55;101499.90;;;16.95;70.56
80118;BME280;69424;48.770;-1.564;2023-07-30T00:23:29;101496.67;;;16.96;70.37
80118;BME280;69424;48.770;-1.564;2023-07-30T00:24:02;101496.67;;;16.97;70.48
80118;BME280;69424;48.770;-1.564;2023-07-30T00:24:35;101492.91;;;16.98;70.27
80118;BME280;69424;48.770;-1.564;2023-07-30T00:25:08;101497.73;;;16.99;70.28
80118;BME280;69424;48.770;-1.564;2023-07-30T00:25:41;101500.41;;;16.99;70.78
80118;BME280;69424;48.770;-1.564;2023-07-30T00:26:14;101495.39;;;17.00;70.85
80118;BME280;69424;48.770;-1.564;2023-07-30T00:26:47;101498.27;;;17.00;71.01
80118;BME280;69424;48.770;-1.564;2023-07-30T00:27:20;101497.54;;;17.01;71.01
80118;BME280;69424;48.770;-1.564;2023-07-30T00:27:55;101498.42;;;17.01;71.05
80118;BME280;69424;48.770;-1.564;2023-07-30T00:28:29;101500.58;;;17.01;71.53
80118;BME280;69424;48.770;-1.564;2023-07-30T00:29:02;101503.08;;;17.01;71.74
80118;BME280;69424;48.770;-1.564;2023-07-30T00:29:35;101509.86;;;17.01;71.64
80118;BME280;69424;48.770;-1.564;2023-07-30T00:30:08;101507.02;;;17.00;71.81
80118;BME280;69424;48.770;-1.564;2023-07-30T00:30:41;101500.95;;;17.00;71.73
80118;BME280;69424;48.770;-1.564;2023-07-30T00:31:15;101499.16;;;16.99;71.63
80118;BME280;69424;48.770;-1.564;2023-07-30T00:31:48;101502.37;;;16.99;71.46
80118;BME280;69424;48.770;-1.564;2023-07-30T00:32:21;101505.40;;;16.99;71.65
80118;BME280;69424;48.770;-1.564;2023-07-30T00:32:56;101505.77;;;17.00;71.63
80118;BME280;69424;48.770;-1.564;2023-07-30T00:33:30;101508.45;;;17.00;71.85
80118;BME280;69424;48.770;-1.564;2023-07-30T00:34:02;101511.30;;;17.01;71.42
80118;BME280;69424;48.770;-1.564;2023-07-30T00:34:36;101516.12;;;17.01;70.90
80118;BME280;69424;48.770;-1.564;2023-07-30T00:35:10;101515.77;;;17.01;70.57
80118;BME280;69424;48.770;-1.564;2023-07-30T00:35:43;101516.30;;;17.01;70.57
80118;BME280;69424;48.770;-1.564;2023-07-30T00:36:16;101510.05;;;17.01;69.96
80118;BME280;69424;48.770;-1.564;2023-07-30T00:36:49;101515.23;;;17.01;69.99
80118;BME280;69424;48.770;-1.564;2023-07-30T00:37:22;101514.33;;;17.02;70.12
80118;BME280;69424;48.770;-1.564;2023-07-30T00:37:55;101512.36;;;17.02;70.42
80118;BME280;69424;48.770;-1.564;2023-07-30T00:38:28;101516.29;;;17.02;70.97
80118;BME280;69424;48.770;-1.564;2023-07-30T00:39:01;101509.51;;;17.03;71.13
80118;BME280;69424;48.770;-1.564;2023-07-30T00:39:36;101510.04;;;17.02;71.58
80118;BME280;69424;48.770;-1.564;2023-07-30T00:40:09;101508.80;;;17.01;71.90
80118;BME280;69424;48.770;-1.564;2023-07-30T00:40:42;101507.37;;;17.00;71.87
80118;BME280;69424;48.770;-1.564;2023-07-30T00:41:15;101509.52;;;16.99;71.82
80118;BME280;69424;48.770;-1.564;2023-07-30T00:41:49;101508.81;;;16.99;71.89
80118;BME280;69424;48.770;-1.564;2023-07-30T00:42:22;101514.17;;;16.98;72.39
80118;BME280;69424;48.770;-1.564;2023-07-30T00:42:55;101515.06;;;16.98;72.59
80118;BME280;69424;48.770;-1.564;2023-07-30T00:43:28;101515.06;;;16.97;72.46
80118;BME280;69424;48.770;-1.564;2023-07-30T00:44:01;101512.92;;;16.98;72.86
80118;BME280;69424;48.770;-1.564;2023-07-30T00:44:34;101512.03;;;16.99;72.74
80118;BME280;69424;48.770;-1.564;2023-07-30T00:45:08;101513.63;;;16.99;73.08
80118;BME280;69424;48.770;-1.564;2023-07-30T00:45:43;101514.35;;;17.00;72.88
80118;BME280;69424;48.770;-1.564;2023-07-30T00:46:17;101510.05;;;17.00;72.74
80118;BME280;69424;48.770;-1.564;2023-07-30T00:46:51;101510.04;;;17.01;72.87
80118;BME280;69424;48.770;-1.564;2023-07-30T00:47:25;101513.27;;;17.03;72.82
80118;BME280;69424;48.770;-1.564;2023-07-30T00:47:59;101513.42;;;17.03;72.79
80118;BME280;69424;48.770;-1.564;2023-07-30T00:48:33;101509.13;;;17.05;72.63
80118;BME280;69424;48.770;-1.564;2023-07-30T00:49:06;101512.70;;;17.06;72.70
80118;BME280;69424;48.770;-1.564;2023-07-30T00:49:39;101510.38;;;17.06;72.81
80118;BME280;69424;48.770;-1.564;2023-07-30T00:50:15;101513.41;;;17.06;72.50
80118;BME280;69424;48.770;-1.564;2023-07-30T00:50:48;101507.50;;;17.06;72.25
80118;BME280;69424;48.770;-1.564;2023-07-30T00:51:22;101512.52;;;17.06;72.19
80118;BME280;69424;48.770;-1.564;2023-07-30T00:51:55;101516.98;;;17.07;72.05
80118;BME280;69424;48.770;-1.564;2023-07-30T00:52:29;101511.80;;;17.06;71.94
80118;BME280;69424;48.770;-1.564;2023-07-30T00:53:03;101514.48;;;17.06;71.92
80118;BME280;69424;48.770;-1.564;2023-07-30T00:53:36;101514.13;;;17.06;72.04
80118;BME280;69424;48.770;-1.564;2023-07-30T00:54:10;101514.30;;;17.06;72.24
80118;BME280;69424;48.770;-1.564;2023-07-30T00:54:48;101511.80;;;17.07;72.16
80118;BME280;69424;48.770;-1.564;2023-07-30T00:55:21;101509.66;;;17.07;72.21
80118;BME280;69424;48.770;-1.564;2023-07-30T00:55:56;101509.66;;;17.07;72.35
80118;BME280;69424;48.770;-1.564;2023-07-30T00:56:29;101510.90;;;17.10;72.28
80118;BME280;69424;48.770;-1.564;2023-07-30T00:57:03;101513.94;;;17.10;72.03
80118;BME280;69424;48.770;-1.564;2023-07-30T00:57:37;101509.46;;;17.10;72.29
80118;BME280;69424;48.770;-1.564;2023-07-30T00:58:11;101511.78;;;17.11;72.50
80118;BME280;69424;48.770;-1.564;2023-07-30T00:58:46;101513.21;;;17.12;72.43
80118;BME280;69424;48.770;-1.564;2023-07-30T00:59:21;101512.31;;;17.13;72.60
80118;BME280;69424;48.770;-1.564;2023-07-30T00:59:55;101514.45;;;17.13;72.87
80118;BME280;69424;48.770;-1.564;2023-07-30T01:00:30;101509.61;;;17.13;73.08
80118;BME280;69424;48.770;-1.564;2023-07-30T01:01:04;101511.58;;;17.14;73.24
80118;BME280;69424;48.770;-1.564;2023-07-30T01:01:40;101509.09;;;17.13;73.20
80118;BME280;69424;48.770;-1.564;2023-07-30T01:02:14;101508.89;;;17.14;73.26
80118;BME280;69424;48.770;-1.564;2023-07-30T01:02:47;101509.61;;;17.14;73.37
80118;BME280;69424;48.770;-1.564;2023-07-30T01:03:20;101507.66;;;17.13;73.43
80118;BME280;69424;48.770;-1.564;2023-07-30T01:03:53;101504.09;;;17.12;73.46
80118;BME280;69424;48.770;-1.564;2023-07-30T01:04:27;101508.03;;;17.11;73.17
80118;BME280;69424;48.770;-1.564;2023-07-30T01:05:01;101507.86;;;17.10;72.92
80118;BME280;69424;48.770;-1.564;2023-07-30T01:05:34;101506.25;;;17.09;72.81
80118;BME280;69424;48.770;-1.564;2023-07-30T01:06:07;101503.23;;;17.08;72.91
80118;BME280;69424;48.770;-1.564;2023-07-30T01:06:40;101504.30;;;17.09;73.32
80118;BME280;69424;48.770;-1.564;2023-07-30T01:07:14;101506.08;;;17.09;73.56
80118;BME280;69424;48.770;-1.564;2023-07-30T01:07:47;101507.86;;;17.09;73.39
80118;BME280;69424;48.770;-1.564;2023-07-30T01:08:20;101507.67;;;17.10;73.47
80118;BME280;69424;48.770;-1.564;2023-07-30T01:08:53;101505.19;;;17.11;73.52
80118;BME280;69424;48.770;-1.564;2023-07-30T01:09:26;101505.52;;;17.12;73.48
80118;BME280;69424;48.770;-1.564;2023-07-30T01:10:00;101499.45;;;17.12;73.28
80118;BME280;69424;48.770;-1.564;2023-07-30T01:10:34;101503.75;;;17.12;73.02
80118;BME280;69424;48.770;-1.564;2023-07-30T01:11:09;101510.71;;;17.12;72.89
80118;BME280;69424;48.770;-1.564;2023-07-30T01:11:43;101509.98;;;17.11;72.87
80118;BME280;69424;48.770;-1.564;2023-07-30T01:12:17;101504.98;;;17.11;72.76
80118;BME280;69424;48.770;-1.564;2023-07-30T01:12:50;101507.30;;;17.11;72.99
80118;BME280;69424;48.770;-1.564;2023-07-30T01:13:24;101506.59;;;17.11;73.21
80118;BME280;69424;48.770;-1.564;2023-07-30T01:13:59;101510.53;;;17.11;73.10
80118;BME280;69424;48.770;-1.564;2023-07-30T01:14:33;101507.30;;;17.10;73.08
80118;BME280;69424;48.770;-1.564;2023-07-30T01:15:07;101509.11;;;17.10;73.19
80118;BME280;69424;48.770;-1.564;2023-07-30T01:15:42;101510.54;;;17.09;73.13
80118;BME280;69424;48.770;-1.564;2023-07-30T01:16:16;101508.94;;;17.09;73.13
80118;BME280;69424;48.770;-1.564;2023-07-30T01:16:49;101507.33;;;17.08;72.91
80118;BME280;69424;48.770;-1.564;2023-07-30T01:17:23;101514.48;;;17.08;73.02
80118;BME280;69424;48.770;-1.564;2023-07-30T01:17:56;101511.08;;;17.07;73.00
80118;BME280;69424;48.770;-1.564;2023-07-30T01:18:30;101511.09;;;17.07;73.06
80118;BME280;69424;48.770;-1.564;2023-07-30T01:19:03;101512.34;;;17.07;73.22
80118;BME280;69424;48.770;-1.564;2023-07-30T01:19:37;101513.41;;;17.07;73.20
80118;BME280;69424;48.770;-1.564;2023-07-30T01:20:11;101510.20;;;17.07;73.21
80118;BME280;69424;48.770;-1.564;2023-07-30T01:20:44;101509.48;;;17.05;73.38
80118;BME280;69424;48.770;-1.564;2023-07-30T01:21:18;101510.02;;;17.06;73.34
80118;BME280;69424;48.770;-1.564;2023-07-30T01:21:51;101512.35;;;17.06;73.46
80118;BME280;69424;48.770;-1.564;2023-07-30T01:22:24;101511.98;;;17.05;73.51
80118;BME280;69424;48.770;-1.564;2023-07-30T01:22:58;101511.63;;;17.05;73.56
80118;BME280;69424;48.770;-1.564;2023-07-30T01:23:32;101516.45;;;17.04;73.92
80118;BME280;69424;48.770;-1.564;2023-07-30T01:24:05;101516.29;;;17.04;73.88
80118;BME280;69424;48.770;-1.564;2023-07-30T01:24:38;101513.59;;;17.04;74.01
80118;BME280;69424;48.770;-1.564;2023-07-30T01:25:11;101511.83;;;17.03;73.97
80118;BME280;69424;48.770;-1.564;2023-07-30T01:25:45;101512.72;;;17.04;73.99
80118;BME280;69424;48.770;-1.564;2023-07-30T01:26:24;101513.26;;;17.03;74.19
80118;BME280;69424;48.770;-1.564;2023-07-30T01:27:05;101511.11;;;17.02;73.95
80118;BME280;69424;48.770;-1.564;2023-07-30T01:27:44;101514.87;;;17.01;74.01
80118;BME280;69424;48.770;-1.564;2023-07-30T01:28:21;101519.70;;;17.00;74.03
80118;BME280;69424;48.770;-1.564;2023-07-30T01:28:58;101518.98;;;16.99;74.04
80118;BME280;69424;48.770;-1.564;2023-07-30T01:29:48;101515.96;;;16.98;74.30
80118;BME280;69424;48.770;-1.564;2023-07-30T01:30:37;101518.83;;;16.97;74.36
80118;BME280;69424;48.770;-1.564;2023-07-30T01:31:17;101520.08;;;16.95;74.50
80118;BME280;69424;48.770;-1.564;2023-07-30T01:31:56;101519.73;;;16.93;74.30
80118;BME280;69424;48.770;-1.564;2023-07-30T01:32:30;101515.81;;;16.92;74.43
80118;BME280;69424;48.770;-1.564;2023-07-30T01:33:04;101517.79;;;16.91;74.41
80118;BME280;69424;48.770;-1.564;2023-07-30T01:33:39;101520.10;;;16.91;74.34
80118;BME280;69424;48.770;-1.564;2023-07-30T01:34:13;101520.28;;;16.90;74.41
80118;BME280;69424;48.770;-1.564;2023-07-30T01:34:49;101518.32;;;16.90;74.10
80118;BME280;69424;48.770;-1.564;2023-07-30T01:35:27;101518.50;;;16.89;74.25
80118;BME280;69424;48.770;-1.564;2023-07-30T01:36:01;101517.97;;;16.90;74.27
80118;BME280;69424;48.770;-1.564;2023-07-30T01:36:37;101517.98;;;16.90;74.17
80118;BME280;69424;48.770;-1.564;2023-07-30T01:37:12;101516.72;;;16.90;74.35
80118;BME280;69424;48.770;-1.564;2023-07-30T01:37:47;101516.17;;;16.90;74.22
80118;BME280;69424;48.770;-1.564;2023-07-30T01:38:21;101515.83;;;16.90;74.09
80118;BME280;69424;48.770;-1.564;2023-07-30T01:38:56;101516.36;;;16.90;74.28
80118;BME280;69424;48.770;-1.564;2023-07-30T01:39:30;101516.52;;;16.90;74.26
80118;BME280;69424;48.770;-1.564;2023-07-30T01:40:04;101526.53;;;16.90;74.37
80118;BME280;69424;48.770;-1.564;2023-07-30T01:40:39;101521.71;;;16.90;74.25
80118;BME280;69424;48.770;-1.564;2023-07-30T01:41:12;101523.87;;;16.89;74.33
80118;BME280;69424;48.770;-1.564;2023-07-30T01:41:45;101522.79;;;16.89;74.46
80118;BME280;69424;48.770;-1.564;2023-07-30T01:42:19;101523.86;;;16.88;74.20
80118;BME280;69424;48.770;-1.564;2023-07-30T01:42:52;101526.36;;;16.88;74.22
80118;BME280;69424;48.770;-1.564;2023-07-30T01:43:25;101527.62;;;16.87;74.23
80118;BME280;69424;48.770;-1.564;2023-07-30T01:43:58;101526.73;;;16.88;74.17
80118;BME280;69424;48.770;-1.564;2023-07-30T01:44:31;101528.87;;;16.88;74.24
80118;BME280;69424;48.770;-1.564;2023-07-30T01:45:05;101529.23;;;16.87;74.36
80118;BME280;69424;48.770;-1.564;2023-07-30T01:45:39;101528.33;;;16.87;74.11
80118;BME280;69424;48.770;-1.564;2023-07-30T01:46:13;101532.27;;;16.86;74.21
80118;BME280;69424;48.770;-1.564;2023-07-30T01:46:46;101526.02;;;16.86;74.03
80118;BME280;69424;48.770;-1.564;2023-07-30T01:47:19;101530.30;;;16.85;74.14
80118;BME280;69424;48.770;-1.564;2023-07-30T01:47:52;101531.19;;;16.85;74.02
80118;BME280;69424;48.770;-1.564;2023-07-30T01:48:26;101532.26;;;16.84;74.11
80118;BME280;69424;48.770;-1.564;2023-07-30T01:48:59;101528.67;;;16.83;74.14
80118;BME280;69424;48.770;-1.564;2023-07-30T01:49:33;101532.27;;;16.82;74.37
80118;BME280;69424;48.770;-1.564;2023-07-30T01:50:06;101525.30;;;16.80;74.63
80118;BME280;69424;48.770;-1.564;2023-07-30T01:50:39;101527.63;;;16.79;74.56
80118;BME280;69424;48.770;-1.564;2023-07-30T01:51:12;101528.70;;;16.78;74.43
80118;BME280;69424;48.770;-1.564;2023-07-30T01:51:45;101529.05;;;16.76;74.57
80118;BME280;69424;48.770;-1.564;2023-07-30T01:52:18;101529.62;;;16.74;74.68
80118;BME280;69424;48.770;-1.564;2023-07-30T01:52:52;101532.12;;;16.73;74.68
80118;BME280;69424;48.770;-1.564;2023-07-30T01:53:24;101530.88;;;16.71;74.65
80118;BME280;69424;48.770;-1.564;2023-07-30T01:53:58;101533.55;;;16.70;74.33
80118;BME280;69424;48.770;-1.564;2023-07-30T01:54:31;101531.41;;;16.68;74.32
80118;BME280;69424;48.770;-1.564;2023-07-30T01:55:06;101530.89;;;16.66;74.29
80118;BME280;69424;48.770;-1.564;2023-07-30T01:55:39;101527.85;;;16.65;74.29
80118;BME280;69424;48.770;-1.564;2023-07-30T01:56:16;101530.18;;;16.65;74.48
80118;BME280;69424;48.770;-1.564;2023-07-30T01:56:49;101533.58;;;16.64;74.68
80118;BME280;69424;48.770;-1.564;2023-07-30T01:57:23;101532.69;;;16.63;74.50
80118;BME280;69424;48.770;-1.564;2023-07-30T01:57:56;101533.77;;;16.64;74.63
80118;BME280;69424;48.770;-1.564;2023-07-30T01:58:29;101533.04;;;16.64;74.74
80118;BME280;69424;48.770;-1.564;2023-07-30T01:59:02;101530.55;;;16.64;74.79
80118;BME280;69424;48.770;-1.564;2023-07-30T01:59:35;101527.88;;;16.64;74.72
80118;BME280;69424;48.770;-1.564;2023-07-30T02:00:08;101530.55;;;16.63;74.87
80118;BME280;69424;48.770;-1.564;2023-07-30T02:00:42;101529.11;;;16.62;74.88
80118;BME280;69424;48.770;-1.564;2023-07-30T02:01:15;101528.23;;;16.62;75.00
80118;BME280;69424;48.770;-1.564;2023-07-30T02:01:48;101530.38;;;16.61;75.26
80118;BME280;69424;48.770;-1.564;2023-07-30T02:02:22;101530.02;;;16.60;75.07
80118;BME280;69424;48.770;-1.564;2023-07-30T02:02:55;101532.15;;;16.59;75.15
80118;BME280;69424;48.770;-1.564;2023-07-30T02:03:28;101529.13;;;16.59;75.17
80118;BME280;69424;48.770;-1.564;2023-07-30T02:04:01;101537.17;;;16.58;74.84
80118;BME280;69424;48.770;-1.564;2023-07-30T02:04:34;101534.83;;;16.57;74.97
80118;BME280;69424;48.770;-1.564;2023-07-30T02:05:07;101535.91;;;16.56;74.84
80118;BME280;69424;48.770;-1.564;2023-07-30T02:05:41;101537.73;;;16.54;74.98
80118;BME280;69424;48.770;-1.564;2023-07-30T02:06:14;101535.94;;;16.51;75.03
80118;BME280;69424;48.770;-1.564;2023-07-30T02:06:47;101534.52;;;16.50;75.10
80118;BME280;69424;48.770;-1.564;2023-07-30T02:07:21;101532.02;;;16.48;75.70
80118;BME280;69424;48.770;-1.564;2023-07-30T02:07:54;101530.59;;;16.47;75.69
80118;BME280;69424;48.770;-1.564;2023-07-30T02:08:27;101532.55;;;16.47;75.73
80118;BME280;69424;48.770;-1.564;2023-07-30T02:09:01;101534.35;;;16.46;75.61
80118;BME280;69424;48.770;-1.564;2023-07-30T02:09:34;101530.60;;;16.46;75.51
80118;BME280;69424;48.770;-1.564;2023-07-30T02:10:09;101534.17;;;16.46;75.54
80118;BME280;69424;48.770;-1.564;2023-07-30T02:10:42;101538.28;;;16.46;75.49
80118;BME280;69424;48.770;-1.564;2023-07-30T02:11:15;101536.48;;;16.46;75.18
80118;BME280;69424;48.770;-1.564;2023-07-30T02:11:49;101535.07;;;16.46;75.20
80118;BME280;69424;48.770;-1.564;2023-07-30T02:12:22;101538.27;;;16.46;75.30
80118;BME280;69424;48.770;-1.564;2023-07-30T02:12:55;101533.98;;;16.46;75.50
80118;BME280;69424;48.770;-1.564;2023-07-30T02:13:28;101532.56;;;16.45;75.52
80118;BME280;69424;48.770;-1.564;2023-07-30T02:14:01;101532.05;;;16.44;75.40
80118;BME280;69424;48.770;-1.564;2023-07-30T02:14:34;101532.21;;;16.45;75.35
80118;BME280;69424;48.770;-1.564;2023-07-30T02:15:08;101529.52;;;16.45;75.37
80118;BME280;69424;48.770;-1.564;2023-07-30T02:15:41;101528.98;;;16.47;75.44
80118;BME280;69424;48.770;-1.564;2023-07-30T02:16:15;101527.21;;;16.46;75.68
80118;BME280;69424;48.770;-1.564;2023-07-30T02:16:48;101525.23;;;16.47;75.72
80118;BME280;69424;48.770;-1.564;2023-07-30T02:17:22;101524.87;;;16.47;75.53
80118;BME280;69424;48.770;-1.564;2023-07-30T02:17:55;101522.02;;;16.47;75.56
80118;BME280;69424;48.770;-1.564;2023-07-30T02:18:28;101524.52;;;16.47;75.84
80118;BME280;69424;48.770;-1.564;2023-07-30T02:19:01;101525.60;;;16.46;75.75
80118;BME280;69424;48.770;-1.564;2023-07-30T02:19:34;101527.75;;;16.45;75.63
80118;BME280;69424;48.770;-1.564;2023-07-30T02:20:10;101528.46;;;16.44;75.58
80118;BME280;69424;48.770;-1.564;2023-07-30T02:20:43;101531.50;;;16.43;75.49
80118;BME280;69424;48.770;-1.564;2023-07-30T02:21:16;101530.06;;;16.42;75.30
80118;BME280;69424;48.770;-1.564;2023-07-30T02:21:49;101534.00;;;16.42;75.32
80118;BME280;69424;48.770;-1.564;2023-07-30T02:22:22;101529.72;;;16.41;75.40
80118;BME280;69424;48.770;-1.564;2023-07-30T02:22:56;101530.07;;;16.40;75.57
80118;BME280;69424;48.770;-1.564;2023-07-30T02:23:29;101529.54;;;16.39;75.75
80118;BME280;69424;48.770;-1.564;2023-07-30T02:24:03;101531.85;;;16.39;75.60
80118;BME280;69424;48.770;-1.564;2023-07-30T02:24:36;101529.36;;;16.39;75.75
80118;BME280;69424;48.770;-1.564;2023-07-30T02:25:09;101528.48;;;16.39;75.70
80118;BME280;69424;48.770;-1.564;2023-07-30T02:25:42;101530.26;;;16.40;75.93
80118;BME280;69424;48.770;-1.564;2023-07-30T02:26:16;101529.19;;;16.40;75.90
80118;BME280;69424;48.770;-1.564;2023-07-30T02:26:49;101525.79;;;16.40;75.93
80118;BME280;69424;48.770;-1.564;2023-07-30T02:27:22;101530.07;;;16.40;75.71
80118;BME280;69424;48.770;-1.564;2023-07-30T02:27:56;101528.84;;;16.40;75.74
80118;BME280;69424;48.770;-1.564;2023-07-30T02:28:29;101526.32;;;16.40;75.86
80118;BME280;69424;48.770;-1.564;2023-07-30T02:29:02;101533.47;;;16.40;75.84
80118;BME280;69424;48.770;-1.564;2023-07-30T02:29:35;101531.67;;;16.40;76.04
80118;BME280;69424;48.770;-1.564;2023-07-30T02:30:09;101528.82;;;16.39;75.97
80118;BME280;69424;48.770;-1.564;2023-07-30T02:30:42;101529.38;;;16.39;76.12
80118;BME280;69424;48.770;-1.564;2023-07-30T02:31:15;101529.90;;;16.39;76.19
80118;BME280;69424;48.770;-1.564;2023-07-30T02:31:48;101531.87;;;16.38;76.37
80118;BME280;69424;48.770;-1.564;2023-07-30T02:32:22;101531.52;;;16.38;76.38
80118;BME280;69424;48.770;-1.564;2023-07-30T02:32:55;101531.67;;;16.38;76.37
80118;BME280;69424;48.770;-1.564;2023-07-30T02:33:28;101529.89;;;16.37;76.50
80118;BME280;69424;48.770;-1.564;2023-07-30T02:34:01;101530.45;;;16.37;76.40
80118;BME280;69424;48.770;-1.564;2023-07-30T02:34:34;101528.84;;;16.36;76.32
80118;BME280;69424;48.770;-1.564;2023-07-30T02:35:07;101532.77;;;16.37;76.48
80118;BME280;69424;48.770;-1.564;2023-07-30T02:35:43;101530.79;;;16.38;76.34
80118;BME280;69424;48.770;-1.564;2023-07-30T02:36:16;101530.08;;;16.38;76.13
80118;BME280;69424;48.770;-1.564;2023-07-30T02:36:49;101531.68;;;16.39;76.11
80118;BME280;69424;48.770;-1.564;2023-07-30T02:37:22;101528.48;;;16.39;76.21
80118;BME280;69424;48.770;-1.564;2023-07-30T02:37:55;101532.04;;;16.39;76.21
80118;BME280;69424;48.770;-1.564;2023-07-30T02:38:28;101534.36;;;16.39;76.10
80118;BME280;69424;48.770;-1.564;2023-07-30T02:39:01;101534.52;;;16.40;76.12
80118;BME280;69424;48.770;-1.564;2023-07-30T02:39:34;101532.21;;;16.41;76.22
80118;BME280;69424;48.770;-1.564;2023-07-30T02:40:08;101531.67;;;16.41;76.15
80118;BME280;69424;48.770;-1.564;2023-07-30T02:40:41;101534.35;;;16.42;76.29
80118;BME280;69424;48.770;-1.564;2023-07-30T02:41:14;101533.11;;;16.41;76.20
80118;BME280;69424;48.770;-1.564;2023-07-30T02:41:47;101531.86;;;16.41;76.15
80118;BME280;69424;48.770;-1.564;2023-07-30T02:42:20;101531.31;;;16.41;76.01
80118;BME280;69424;48.770;-1.564;2023-07-30T02:42:53;101536.50;;;16.40;76.00
80118;BME280;69424;48.770;-1.564;2023-07-30T02:43:28;101532.39;;;16.39;76.20
80118;BME280;69424;48.770;-1.564;2023-07-30T02:44:01;101533.64;;;16.38;75.98
80118;BME280;69424;48.770;-1.564;2023-07-30T02:44:35;101536.34;;;16.36;76.33
80118;BME280;69424;48.770;-1.564;2023-07-30T02:45:08;101534.91;;;16.34;76.17
80118;BME280;69424;48.770;-1.564;2023-07-30T02:45:41;101534.73;;;16.32;76.07
80118;BME280;69424;48.770;-1.564;2023-07-30T02:46:14;101533.48;;;16.30;76.04
80118;BME280;69424;48.770;-1.564;2023-07-30T02:46:47;101533.85;;;16.28;76.07
80118;BME280;69424;48.770;-1.564;2023-07-30T02:47:20;101533.49;;;16.28;76.06
80118;BME280;69424;48.770;-1.564;2023-07-30T02:47:53;101532.78;;;16.27;75.96
80118;BME280;69424;48.770;-1.564;2023-07-30T02:48:26;101532.78;;;16.26;76.19
80118;BME280;69424;48.770;-1.564;2023-07-30T02:48:59;101526.35;;;16.26;76.24
80118;BME280;69424;48.770;-1.564;2023-07-30T02:49:32;101527.96;;;16.26;76.23
80118;BME280;69424;48.770;-1.564;2023-07-30T02:50:06;101531.90;;;16.26;76.10
80118;BME280;69424;48.770;-1.564;2023-07-30T02:50:39;101533.86;;;16.26;76.34
80118;BME280;69424;48.770;-1.564;2023-07-30T02:51:12;101535.83;;;16.26;76.23
80118;BME280;69424;48.770;-1.564;2023-07-30T02:51:45;101532.96;;;16.26;76.27
80118;BME280;69424;48.770;-1.564;2023-07-30T02:52:21;101536.00;;;16.26;76.06
80118;BME280;69424;48.770;-1.564;2023-07-30T02:52:54;101531.35;;;16.26;75.93
80118;BME280;69424;48.770;-1.564;2023-07-30T02:53:28;101530.30;;;16.26;75.92
80118;BME280;69424;48.770;-1.564;2023-07-30T02:54:04;101534.56;;;16.26;75.99
80118;BME280;69424;48.770;-1.564;2023-07-30T02:54:38;101530.81;;;16.26;76.09